EPSC/SZZ METAR and TAF weather

Enter ICAO airport designator
Station Type Date Time Source
EPSC METAR 2020/01/23 09:00 UTC NOAA

EPSC 230900Z 25005KT 220V290 4000 BR OVC001 01/01 Q1033


Station Type Date Time Source
EPSC Decoded METAR 2020/01/23 09:00 UTC NOAA

Szczecin, Poland (EPSC) 53-24N 014-37E 3M
Jan 23, 2020 - 04:00 AM EST / 2020.01.23 0900 UTC
Wind: from the WSW (250 degrees) at 6 MPH (5 KT) (direction variable):0
Visibility: 2 mile(s):0
Sky conditions: overcast
Weather: mist
Temperature: 33 F (1 C)
Windchill: 26 F (-3 C):1
Dew Point: 33 F (1 C)
Relative Humidity: 100%
Pressure (altimeter): 30.50 in. Hg (1033 hPa)
ob: EPSC 230900Z 25005KT 220V290 4000 BR OVC001 01/01 Q1033
cycle: 9

Station Type Date Time Source
EPSC TAF 2020/01/23 08:36 UTC NOAA

TAF
AMD TAF
AMD EPSC 230831Z 2308/2406 24006KT 1500 BR OVC001
BECMG 2309/2311 8000 OVC004
BECMG 2311/2313 BKN008
TEMPO 2315/2406 4000 BR BKN004 PROB40
TEMPO 2400/2406 BKN001

Example: see airport list